sensor_id;sensor_type;location;lat;lon;timestamp;P1;durP1;ratioP1;P2;durP2;ratioP2
19946;SDS011;10135;50.702;7.276;2023-03-31T05:02:01;1.33;;;1.30;;
19946;SDS011;10135;50.702;7.276;2023-03-31T05:04:05;3.53;;;1.23;;
19946;SDS011;10135;50.702;7.276;2023-03-31T05:06:05;2.20;;;1.50;;
19946;SDS011;10135;50.702;7.276;2023-03-31T05:08:06;1.80;;;1.60;;
19946;SDS011;10135;50.702;7.276;2023-03-31T05:10:07;6.33;;;2.00;;
19946;SDS011;10135;50.702;7.276;2023-03-31T05:12:08;1.43;;;1.33;;
19946;SDS011;10135;50.702;7.276;2023-03-31T05:14:09;1.57;;;1.20;;
19946;SDS011;10135;50.702;7.276;2023-03-31T05:16:11;1.60;;;1.07;;
19946;SDS011;10135;50.702;7.276;2023-03-31T05:18:13;2.10;;;1.20;;
19946;SDS011;10135;50.702;7.276;2023-03-31T05:20:14;3.27;;;1.50;;
19946;SDS011;10135;50.702;7.276;2023-03-31T05:22:15;3.70;;;1.30;;
19946;SDS011;10135;50.702;7.276;2023-03-31T05:24:19;2.83;;;1.10;;
19946;SDS011;10135;50.702;7.276;2023-03-31T05:26:20;1.23;;;1.00;;
19946;SDS011;10135;50.702;7.276;2023-03-31T05:28:24;4.30;;;1.30;;
19946;SDS011;10135;50.702;7.276;2023-03-31T05:30:24;1.67;;;1.20;;
19946;SDS011;10135;50.702;7.276;2023-03-31T05:32:26;1.30;;;1.20;;
19946;SDS011;10135;50.702;7.276;2023-03-31T05:34:28;1.67;;;1.20;;
19946;SDS011;10135;50.702;7.276;2023-03-31T05:36:28;1.60;;;1.07;;
19946;SDS011;10135;50.702;7.276;2023-03-31T05:38:29;0.90;;;0.90;;
19946;SDS011;10135;50.702;7.276;2023-03-31T05:40:30;1.87;;;1.20;;
19946;SDS011;10135;50.702;7.276;2023-03-31T05:42:31;1.30;;;1.20;;
19946;SDS011;10135;50.702;7.276;2023-03-31T05:44:32;1.10;;;1.03;;
19946;SDS011;10135;50.702;7.276;2023-03-31T05:46:32;1.40;;;1.30;;
19946;SDS011;10135;50.702;7.276;2023-03-31T05:48:33;1.33;;;1.20;;
19946;SDS011;10135;50.702;7.276;2023-03-31T05:50:36;1.63;;;1.27;;
19946;SDS011;10135;50.702;7.276;2023-03-31T05:52:36;1.00;;;0.90;;
19946;SDS011;10135;50.702;7.276;2023-03-31T05:54:37;2.97;;;1.00;;
19946;SDS011;10135;50.702;7.276;2023-03-31T05:56:38;1.03;;;0.90;;
19946;SDS011;10135;50.702;7.276;2023-03-31T05:58:39;0.80;;;0.80;;
19946;SDS011;10135;50.702;7.276;2023-03-31T06:00:40;0.90;;;0.90;;
19946;SDS011;10135;50.702;7.276;2023-03-31T06:02:40;0.70;;;0.70;;
19946;SDS011;10135;50.702;7.276;2023-03-31T06:04:41;1.00;;;1.00;;
19946;SDS011;10135;50.702;7.276;2023-03-31T06:06:42;1.17;;;1.03;;
19946;SDS011;10135;50.702;7.276;2023-03-31T06:08:45;4.23;;;2.23;;
19946;SDS011;10135;50.702;7.276;2023-03-31T06:10:47;1.30;;;1.20;;
19946;SDS011;10135;50.702;7.276;2023-03-31T06:12:47;1.57;;;1.47;;
19946;SDS011;10135;50.702;7.276;2023-03-31T06:14:48;1.67;;;1.23;;
19946;SDS011;10135;50.702;7.276;2023-03-31T06:16:49;1.67;;;1.10;;
19946;SDS011;10135;50.702;7.276;2023-03-31T06:18:49;1.47;;;1.20;;
19946;SDS011;10135;50.702;7.276;2023-03-31T06:20:52;0.90;;;0.90;;
19946;SDS011;10135;50.702;7.276;2023-03-31T06:22:53;1.30;;;1.20;;
19946;SDS011;10135;50.702;7.276;2023-03-31T06:24:54;1.90;;;0.97;;
19946;SDS011;10135;50.702;7.276;2023-03-31T06:26:55;1.00;;;1.00;;
19946;SDS011;10135;50.702;7.276;2023-03-31T06:28:55;1.53;;;0.90;;
19946;SDS011;10135;50.702;7.276;2023-03-31T06:31:16;1.10;;;1.10;;
19946;SDS011;10135;50.702;7.276;2023-03-31T06:33:20;1.33;;;0.90;;
19946;SDS011;10135;50.702;7.276;2023-03-31T06:35:20;1.60;;;1.20;;
19946;SDS011;10135;50.702;7.276;2023-03-31T06:37:21;1.73;;;0.93;;
19946;SDS011;10135;50.702;7.276;2023-03-31T06:39:22;2.50;;;0.90;;
19946;SDS011;10135;50.702;7.276;2023-03-31T06:41:23;1.67;;;1.57;;
19946;SDS011;10135;50.702;7.276;2023-03-31T06:43:23;4.43;;;1.97;;
19946;SDS011;10135;50.702;7.276;2023-03-31T06:45:24;2.00;;;1.90;;
19946;SDS011;10135;50.702;7.276;2023-03-31T06:47:25;3.80;;;2.20;;
19946;SDS011;10135;50.702;7.276;2023-03-31T06:49:25;2.73;;;2.20;;
19946;SDS011;10135;50.702;7.276;2023-03-31T06:51:26;2.30;;;2.10;;
19946;SDS011;10135;50.702;7.276;2023-03-31T06:53:27;5.90;;;3.50;;
19946;SDS011;10135;50.702;7.276;2023-03-31T06:55:28;5.90;;;3.03;;
19946;SDS011;10135;50.702;7.276;2023-03-31T06:57:29;12.77;;;5.80;;
19946;SDS011;10135;50.702;7.276;2023-03-31T06:59:32;4.10;;;2.80;;
19946;SDS011;10135;50.702;7.276;2023-03-31T07:01:33;4.73;;;2.90;;
19946;SDS011;10135;50.702;7.276;2023-03-31T07:03:36;2.40;;;2.20;;
19946;SDS011;10135;50.702;7.276;2023-03-31T07:05:36;4.80;;;2.10;;
19946;SDS011;10135;50.702;7.276;2023-03-31T07:07:37;2.23;;;1.83;;
19946;SDS011;10135;50.702;7.276;2023-03-31T07:09:38;2.97;;;1.80;;
19946;SDS011;10135;50.702;7.276;2023-03-31T07:11:39;1.90;;;1.80;;
19946;SDS011;10135;50.702;7.276;2023-03-31T07:13:39;2.20;;;1.93;;
19946;SDS011;10135;50.702;7.276;2023-03-31T07:15:40;1.70;;;1.60;;
19946;SDS011;10135;50.702;7.276;2023-03-31T07:17:40;3.20;;;1.60;;
19946;SDS011;10135;50.702;7.276;2023-03-31T07:19:42;2.30;;;1.50;;
19946;SDS011;10135;50.702;7.276;2023-03-31T07:21:46;2.00;;;1.40;;
19946;SDS011;10135;50.702;7.276;2023-03-31T07:23:47;1.40;;;1.30;;
19946;SDS011;10135;50.702;7.276;2023-03-31T07:25:48;1.20;;;1.20;;
19946;SDS011;10135;50.702;7.276;2023-03-31T07:27:49;2.57;;;1.40;;
19946;SDS011;10135;50.702;7.276;2023-03-31T07:29:50;2.80;;;1.50;;
19946;SDS011;10135;50.702;7.276;2023-03-31T07:31:50;1.97;;;1.60;;
19946;SDS011;10135;50.702;7.276;2023-03-31T07:33:52;1.40;;;1.30;;
19946;SDS011;10135;50.702;7.276;2023-03-31T07:35:52;1.53;;;1.40;;
19946;SDS011;10135;50.702;7.276;2023-03-31T07:37:53;1.20;;;1.20;;
19946;SDS011;10135;50.702;7.276;2023-03-31T07:39:54;0.93;;;0.93;;
19946;SDS011;10135;50.702;7.276;2023-03-31T07:41:54;1.23;;;1.13;;
19946;SDS011;10135;50.702;7.276;2023-03-31T07:43:55;1.10;;;1.00;;
19946;SDS011;10135;50.702;7.276;2023-03-31T07:45:56;1.07;;;1.00;;
19946;SDS011;10135;50.702;7.276;2023-03-31T07:47:56;0.93;;;0.90;;
19946;SDS011;10135;50.702;7.276;2023-03-31T07:49:57;1.13;;;1.10;;
19946;SDS011;10135;50.702;7.276;2023-03-31T07:51:58;0.80;;;0.80;;
19946;SDS011;10135;50.702;7.276;2023-03-31T07:53:59;0.97;;;0.97;;
19946;SDS011;10135;50.702;7.276;2023-03-31T07:56:00;1.43;;;0.97;;
19946;SDS011;10135;50.702;7.276;2023-03-31T07:58:01;1.07;;;1.07;;
19946;SDS011;10135;50.702;7.276;2023-03-31T08:00:04;1.20;;;1.10;;
19946;SDS011;10135;50.702;7.276;2023-03-31T08:02:11;1.10;;;1.00;;
19946;SDS011;10135;50.702;7.276;2023-03-31T08:04:15;1.17;;;1.10;;
19946;SDS011;10135;50.702;7.276;2023-03-31T08:06:20;1.77;;;1.07;;
19946;SDS011;10135;50.702;7.276;2023-03-31T08:08:23;1.03;;;1.03;;
19946;SDS011;10135;50.702;7.276;2023-03-31T08:10:25;2.37;;;1.00;;
19946;SDS011;10135;50.702;7.276;2023-03-31T08:12:27;0.97;;;0.90;;
19946;SDS011;10135;50.702;7.276;2023-03-31T08:14:27;1.33;;;1.20;;
19946;SDS011;10135;50.702;7.276;2023-03-31T08:16:28;1.20;;;1.10;;
19946;SDS011;10135;50.702;7.276;2023-03-31T08:18:29;0.90;;;0.90;;
19946;SDS011;10135;50.702;7.276;2023-03-31T08:20:30;1.37;;;1.27;;
19946;SDS011;10135;50.702;7.276;2023-03-31T08:22:31;0.90;;;0.90;;
19946;SDS011;10135;50.702;7.276;2023-03-31T08:24:32;1.10;;;1.00;;
19946;SDS011;10135;50.702;7.276;2023-03-31T08:26:35;1.20;;;1.13;;
19946;SDS011;10135;50.702;7.276;2023-03-31T08:28:36;1.27;;;1.07;;
19946;SDS011;10135;50.702;7.276;2023-03-31T08:30:37;1.37;;;1.00;;
19946;SDS011;10135;50.702;7.276;2023-03-31T08:32:38;1.37;;;1.13;;
19946;SDS011;10135;50.702;7.276;2023-03-31T08:34:39;1.13;;;0.93;;
19946;SDS011;10135;50.702;7.276;2023-03-31T08:36:41;1.20;;;1.10;;
19946;SDS011;10135;50.702;7.276;2023-03-31T08:38:42;2.83;;;1.17;;
19946;SDS011;10135;50.702;7.276;2023-03-31T08:40:47;0.90;;;0.90;;
19946;SDS011;10135;50.702;7.276;2023-03-31T08:42:52;0.90;;;0.90;;
19946;SDS011;10135;50.702;7.276;2023-03-31T08:47:31;1.53;;;1.30;;
19946;SDS011;10135;50.702;7.276;2023-03-31T08:49:40;1.13;;;1.03;;
19946;SDS011;10135;50.702;7.276;2023-03-31T08:51:48;1.37;;;1.10;;
19946;SDS011;10135;50.702;7.276;2023-03-31T08:53:58;1.03;;;1.03;;
19946;SDS011;10135;50.702;7.276;2023-03-31T08:56:08;1.10;;;1.00;;
19946;SDS011;10135;50.702;7.276;2023-03-31T08:58:31;2.87;;;1.17;;
19946;SDS011;10135;50.702;7.276;2023-03-31T09:00:41;1.90;;;1.30;;
19946;SDS011;10135;50.702;7.276;2023-03-31T09:06:02;1.23;;;1.13;;
19946;SDS011;10135;50.702;7.276;2023-03-31T09:10:51;2.60;;;1.30;;
19946;SDS011;10135;50.702;7.276;2023-03-31T09:15:27;3.60;;;1.50;;
19946;SDS011;10135;50.702;7.276;2023-03-31T09:17:43;2.70;;;1.30;;
19946;SDS011;10135;50.702;7.276;2023-03-31T09:19:54;3.87;;;1.50;;
19946;SDS011;10135;50.702;7.276;2023-03-31T09:22:01;1.27;;;1.03;;
19946;SDS011;10135;50.702;7.276;2023-03-31T09:26:54;2.57;;;1.20;;
19946;SDS011;10135;50.702;7.276;2023-03-31T09:29:00;2.17;;;1.03;;
19946;SDS011;10135;50.702;7.276;2023-03-31T09:31:15;2.20;;;1.50;;
19946;SDS011;10135;50.702;7.276;2023-03-31T09:35:30;3.17;;;1.53;;
19946;SDS011;10135;50.702;7.276;2023-03-31T09:37:32;2.40;;;1.50;;
19946;SDS011;10135;50.702;7.276;2023-03-31T09:39:33;4.27;;;1.40;;
19946;SDS011;10135;50.702;7.276;2023-03-31T09:41:34;4.10;;;1.47;;
19946;SDS011;10135;50.702;7.276;2023-03-31T09:43:35;1.83;;;1.37;;
19946;SDS011;10135;50.702;7.276;2023-03-31T09:45:37;1.40;;;1.30;;
19946;SDS011;10135;50.702;7.276;2023-03-31T09:47:40;4.50;;;1.50;;
19946;SDS011;10135;50.702;7.276;2023-03-31T09:49:44;2.97;;;1.20;;
19946;SDS011;10135;50.702;7.276;2023-03-31T09:51:47;3.77;;;1.40;;
19946;SDS011;10135;50.702;7.276;2023-03-31T09:54:08;3.53;;;1.30;;
19946;SDS011;10135;50.702;7.276;2023-03-31T09:58:44;1.33;;;1.20;;
19946;SDS011;10135;50.702;7.276;2023-03-31T10:01:04;1.40;;;1.30;;
19946;SDS011;10135;50.702;7.276;2023-03-31T10:03:10;1.30;;;1.20;;
19946;SDS011;10135;50.702;7.276;2023-03-31T10:08:17;2.77;;;1.40;;
19946;SDS011;10135;50.702;7.276;2023-03-31T10:10:31;2.67;;;1.17;;
19946;SDS011;10135;50.702;7.276;2023-03-31T10:12:32;2.23;;;1.20;;
19946;SDS011;10135;50.702;7.276;2023-03-31T10:14:41;1.47;;;1.30;;
19946;SDS011;10135;50.702;7.276;2023-03-31T10:21:26;1.87;;;1.13;;
19946;SDS011;10135;50.702;7.276;2023-03-31T10:23:35;4.23;;;1.23;;
19946;SDS011;10135;50.702;7.276;2023-03-31T10:25:36;4.20;;;1.40;;
19946;SDS011;10135;50.702;7.276;2023-03-31T10:27:38;3.13;;;1.00;;
19946;SDS011;10135;50.702;7.276;2023-03-31T10:29:43;1.37;;;0.93;;
19946;SDS011;10135;50.702;7.276;2023-03-31T10:31:44;2.43;;;1.17;;
19946;SDS011;10135;50.702;7.276;2023-03-31T10:33:46;3.00;;;1.27;;
19946;SDS011;10135;50.702;7.276;2023-03-31T10:35:53;3.10;;;1.30;;
19946;SDS011;10135;50.702;7.276;2023-03-31T10:37:58;4.30;;;1.50;;
19946;SDS011;10135;50.702;7.276;2023-03-31T10:42:26;1.50;;;1.20;;
19946;SDS011;10135;50.702;7.276;2023-03-31T10:44:29;3.53;;;1.40;;
19946;SDS011;10135;50.702;7.276;2023-03-31T10:46:46;3.90;;;1.37;;
19946;SDS011;10135;50.702;7.276;2023-03-31T10:48:51;3.70;;;1.50;;
19946;SDS011;10135;50.702;7.276;2023-03-31T10:50:53;3.40;;;1.47;;
19946;SDS011;10135;50.702;7.276;2023-03-31T10:53:31;1.93;;;1.20;;
19946;SDS011;10135;50.702;7.276;2023-03-31T10:55:27;2.80;;;1.40;;
19946;SDS011;10135;50.702;7.276;2023-03-31T10:57:41;2.00;;;1.20;;
19946;SDS011;10135;50.702;7.276;2023-03-31T11:03:01;1.63;;;1.17;;
19946;SDS011;10135;50.702;7.276;2023-03-31T11:07:45;1.93;;;1.23;;
19946;SDS011;10135;50.702;7.276;2023-03-31T11:10:20;2.77;;;1.20;;
19946;SDS011;10135;50.702;7.276;2023-03-31T11:12:47;4.53;;;1.50;;
19946;SDS011;10135;50.702;7.276;2023-03-31T11:15:14;2.20;;;1.43;;
19946;SDS011;10135;50.702;7.276;2023-03-31T11:17:30;3.27;;;1.50;;
19946;SDS011;10135;50.702;7.276;2023-03-31T11:20:29;3.33;;;1.30;;
19946;SDS011;10135;50.702;7.276;2023-03-31T11:34:00;4.40;;;1.50;;
19946;SDS011;10135;50.702;7.276;2023-03-31T11:39:24;4.77;;;1.50;;
19946;SDS011;10135;50.702;7.276;2023-03-31T11:42:04;3.97;;;1.57;;
19946;SDS011;10135;50.702;7.276;2023-03-31T11:44:15;2.57;;;1.40;;
19946;SDS011;10135;50.702;7.276;2023-03-31T11:46:21;6.03;;;1.73;;
19946;SDS011;10135;50.702;7.276;2023-03-31T11:50:51;3.77;;;1.63;;
19946;SDS011;10135;50.702;7.276;2023-03-31T11:53:01;5.10;;;1.80;;
19946;SDS011;10135;50.702;7.276;2023-03-31T11:57:21;3.13;;;1.50;;
19946;SDS011;10135;50.702;7.276;2023-03-31T11:59:30;3.17;;;1.90;;
19946;SDS011;10135;50.702;7.276;2023-03-31T12:01:36;4.93;;;1.60;;
19946;SDS011;10135;50.702;7.276;2023-03-31T12:06:10;4.70;;;1.53;;
19946;SDS011;10135;50.702;7.276;2023-03-31T12:08:38;3.57;;;1.43;;
19946;SDS011;10135;50.702;7.276;2023-03-31T12:10:53;3.80;;;1.40;;
19946;SDS011;10135;50.702;7.276;2023-03-31T12:15:45;1.87;;;1.10;;
19946;SDS011;10135;50.702;7.276;2023-03-31T12:18:08;1.83;;;1.10;;
19946;SDS011;10135;50.702;7.276;2023-03-31T12:20:29;2.33;;;1.00;;
19946;SDS011;10135;50.702;7.276;2023-03-31T12:22:34;1.20;;;1.10;;
19946;SDS011;10135;50.702;7.276;2023-03-31T12:24:42;1.00;;;1.00;;
19946;SDS011;10135;50.702;7.276;2023-03-31T12:26:49;1.60;;;1.50;;
19946;SDS011;10135;50.702;7.276;2023-03-31T12:29:16;1.73;;;1.00;;
19946;SDS011;10135;50.702;7.276;2023-03-31T12:31:30;1.37;;;1.30;;
19946;SDS011;10135;50.702;7.276;2023-03-31T12:40:30;0.70;;;0.70;;
19946;SDS011;10135;50.702;7.276;2023-03-31T12:43:14;1.07;;;0.80;;
19946;SDS011;10135;50.702;7.276;2023-03-31T12:45:57;0.80;;;0.80;;
19946;SDS011;10135;50.702;7.276;2023-03-31T12:48:28;1.07;;;1.07;;
19946;SDS011;10135;50.702;7.276;2023-03-31T12:50:49;2.30;;;1.70;;
19946;SDS011;10135;50.702;7.276;2023-03-31T12:53:27;2.43;;;1.53;;
19946;SDS011;10135;50.702;7.276;2023-03-31T12:55:40;1.60;;;1.50;;
19946;SDS011;10135;50.702;7.276;2023-03-31T12:57:51;1.70;;;1.30;;
19946;SDS011;10135;50.702;7.276;2023-03-31T13:04:20;2.63;;;1.47;;
19946;SDS011;10135;50.702;7.276;2023-03-31T13:11:03;1.73;;;1.30;;
19946;SDS011;10135;50.702;7.276;2023-03-31T13:13:13;1.60;;;1.10;;
19946;SDS011;10135;50.702;7.276;2023-03-31T13:15:16;1.10;;;1.00;;
19946;SDS011;10135;50.702;7.276;2023-03-31T13:17:30;1.47;;;1.00;;
19946;SDS011;10135;50.702;7.276;2023-03-31T13:19:35;1.10;;;1.00;;
19946;SDS011;10135;50.702;7.276;2023-03-31T13:21:51;2.97;;;1.20;;
19946;SDS011;10135;50.702;7.276;2023-03-31T13:23:58;2.57;;;1.50;;
19946;SDS011;10135;50.702;7.276;2023-03-31T13:26:00;2.73;;;1.10;;
19946;SDS011;10135;50.702;7.276;2023-03-31T13:28:24;1.33;;;1.20;;
19946;SDS011;10135;50.702;7.276;2023-03-31T13:32:41;3.20;;;2.33;;
19946;SDS011;10135;50.702;7.276;2023-03-31T13:35:23;4.70;;;1.30;;
19946;SDS011;10135;50.702;7.276;2023-03-31T13:40:31;2.33;;;1.10;;
19946;SDS011;10135;50.702;7.276;2023-03-31T13:43:03;2.70;;;1.40;;
19946;SDS011;10135;50.702;7.276;2023-03-31T13:50:56;1.87;;;1.00;;
19946;SDS011;10135;50.702;7.276;2023-03-31T13:53:27;1.20;;;1.10;;
19946;SDS011;10135;50.702;7.276;2023-03-31T13:56:14;1.93;;;1.03;;
19946;SDS011;10135;50.702;7.276;2023-03-31T13:59:04;1.40;;;1.27;;
19946;SDS011;10135;50.702;7.276;2023-03-31T14:01:34;5.70;;;1.60;;
19946;SDS011;10135;50.702;7.276;2023-03-31T14:06:34;1.43;;;1.23;;
19946;SDS011;10135;50.702;7.276;2023-03-31T14:08:58;2.77;;;1.20;;
19946;SDS011;10135;50.702;7.276;2023-03-31T14:11:25;2.00;;;1.40;;
19946;SDS011;10135;50.702;7.276;2023-03-31T14:13:30;3.37;;;1.23;;
19946;SDS011;10135;50.702;7.276;2023-03-31T14:15:30;2.07;;;1.30;;
19946;SDS011;10135;50.702;7.276;2023-03-31T14:17:37;1.70;;;1.20;;
19946;SDS011;10135;50.702;7.276;2023-03-31T14:19:50;4.90;;;1.37;;
19946;SDS011;10135;50.702;7.276;2023-03-31T14:32:26;2.40;;;1.33;;
19946;SDS011;10135;50.702;7.276;2023-03-31T14:35:02;2.10;;;1.30;;
19946;SDS011;10135;50.702;7.276;2023-03-31T14:37:17;1.40;;;1.10;;
19946;SDS011;10135;50.702;7.276;2023-03-31T14:39:23;3.33;;;1.20;;
19946;SDS011;10135;50.702;7.276;2023-03-31T14:41:54;2.80;;;1.00;;
19946;SDS011;10135;50.702;7.276;2023-03-31T14:44:04;1.53;;;0.70;;
19946;SDS011;10135;50.702;7.276;2023-03-31T14:46:18;2.37;;;1.00;;
19946;SDS011;10135;50.702;7.276;2023-03-31T14:48:20;2.47;;;1.13;;
19946;SDS011;10135;50.702;7.276;2023-03-31T14:50:27;2.03;;;1.17;;
19946;SDS011;10135;50.702;7.276;2023-03-31T14:52:31;0.83;;;0.83;;
19946;SDS011;10135;50.702;7.276;2023-03-31T14:54:34;0.70;;;0.70;;
19946;SDS011;10135;50.702;7.276;2023-03-31T14:56:37;1.73;;;1.00;;
19946;SDS011;10135;50.702;7.276;2023-03-31T14:58:42;2.17;;;1.20;;
19946;SDS011;10135;50.702;7.276;2023-03-31T15:00:48;2.33;;;1.13;;
19946;SDS011;10135;50.702;7.276;2023-03-31T15:02:48;1.97;;;0.93;;
19946;SDS011;10135;50.702;7.276;2023-03-31T15:04:49;1.17;;;0.90;;
19946;SDS011;10135;50.702;7.276;2023-03-31T15:06:50;1.83;;;1.30;;
19946;SDS011;10135;50.702;7.276;2023-03-31T15:08:54;2.00;;;1.10;;
19946;SDS011;10135;50.702;7.276;2023-03-31T15:11:01;1.03;;;1.00;;
19946;SDS011;10135;50.702;7.276;2023-03-31T15:13:11;0.87;;;0.87;;
19946;SDS011;10135;50.702;7.276;2023-03-31T15:15:19;1.27;;;0.90;;
19946;SDS011;10135;50.702;7.276;2023-03-31T15:17:21;1.37;;;1.13;;
19946;SDS011;10135;50.702;7.276;2023-03-31T15:19:38;2.00;;;1.33;;
19946;SDS011;10135;50.702;7.276;2023-03-31T15:21:38;2.07;;;1.30;;
19946;SDS011;10135;50.702;7.276;2023-03-31T15:23:39;3.97;;;1.40;;
19946;SDS011;10135;50.702;7.276;2023-03-31T15:25:40;1.87;;;1.30;;
19946;SDS011;10135;50.702;7.276;2023-03-31T15:27:44;4.70;;;1.30;;
19946;SDS011;10135;50.702;7.276;2023-03-31T15:29:55;1.90;;;1.17;;
19946;SDS011;10135;50.702;7.276;2023-03-31T15:32:00;4.67;;;1.50;;
19946;SDS011;10135;50.702;7.276;2023-03-31T15:34:11;3.47;;;1.00;;
19946;SDS011;10135;50.702;7.276;2023-03-31T15:36:21;1.20;;;1.10;;
19946;SDS011;10135;50.702;7.276;2023-03-31T15:38:22;1.50;;;1.30;;
19946;SDS011;10135;50.702;7.276;2023-03-31T15:40:29;2.03;;;1.20;;
19946;SDS011;10135;50.702;7.276;2023-03-31T15:42:38;2.23;;;1.20;;
19946;SDS011;10135;50.702;7.276;2023-03-31T15:44:43;1.53;;;1.07;;
19946;SDS011;10135;50.702;7.276;2023-03-31T15:46:54;1.10;;;1.00;;
19946;SDS011;10135;50.702;7.276;2023-03-31T15:48:59;1.60;;;1.10;;
19946;SDS011;10135;50.702;7.276;2023-03-31T15:51:02;3.33;;;1.03;;
19946;SDS011;10135;50.702;7.276;2023-03-31T15:53:19;1.73;;;1.20;;
19946;SDS011;10135;50.702;7.276;2023-03-31T15:55:28;1.90;;;1.20;;
19946;SDS011;10135;50.702;7.276;2023-03-31T15:57:32;2.73;;;0.97;;
19946;SDS011;10135;50.702;7.276;2023-03-31T16:01:50;1.30;;;1.13;;
19946;SDS011;10135;50.702;7.276;2023-03-31T16:03:53;1.07;;;0.97;;
19946;SDS011;10135;50.702;7.276;2023-03-31T16:05:56;1.47;;;1.00;;
19946;SDS011;10135;50.702;7.276;2023-03-31T16:08:04;2.63;;;1.00;;
19946;SDS011;10135;50.702;7.276;2023-03-31T16:10:19;2.63;;;1.10;;
19946;SDS011;10135;50.702;7.276;2023-03-31T16:12:23;1.53;;;1.10;;
19946;SDS011;10135;50.702;7.276;2023-03-31T16:14:42;1.17;;;0.97;;
19946;SDS011;10135;50.702;7.276;2023-03-31T16:16:56;1.67;;;0.97;;
19946;SDS011;10135;50.702;7.276;2023-03-31T16:19:08;1.17;;;0.90;;
19946;SDS011;10135;50.702;7.276;2023-03-31T16:21:09;2.23;;;1.00;;
19946;SDS011;10135;50.702;7.276;2023-03-31T16:23:12;3.03;;;1.00;;
19946;SDS011;10135;50.702;7.276;2023-03-31T16:25:26;2.60;;;1.00;;
19946;SDS011;10135;50.702;7.276;2023-03-31T16:27:30;1.80;;;0.90;;
19946;SDS011;10135;50.702;7.276;2023-03-31T16:29:42;1.80;;;0.97;;
19946;SDS011;10135;50.702;7.276;2023-03-31T16:31:43;2.60;;;1.20;;
19946;SDS011;10135;50.702;7.276;2023-03-31T16:33:52;1.70;;;1.17;;
19946;SDS011;10135;50.702;7.276;2023-03-31T16:35:56;1.00;;;1.00;;
19946;SDS011;10135;50.702;7.276;2023-03-31T16:37:57;2.80;;;1.27;;
19946;SDS011;10135;50.702;7.276;2023-03-31T16:40:00;1.10;;;0.80;;
19946;SDS011;10135;50.702;7.276;2023-03-31T16:42:01;1.03;;;0.93;;
19946;SDS011;10135;50.702;7.276;2023-03-31T16:44:02;1.10;;;0.97;;
19946;SDS011;10135;50.702;7.276;2023-03-31T16:46:03;0.80;;;0.80;;
19946;SDS011;10135;50.702;7.276;2023-03-31T16:48:04;2.23;;;1.00;;
19946;SDS011;10135;50.702;7.276;2023-03-31T16:50:06;1.10;;;0.80;;
19946;SDS011;10135;50.702;7.276;2023-03-31T16:52:07;1.20;;;1.10;;
19946;SDS011;10135;50.702;7.276;2023-03-31T16:54:08;1.43;;;0.80;;
19946;SDS011;10135;50.702;7.276;2023-03-31T16:56:09;1.57;;;0.90;;
19946;SDS011;10135;50.702;7.276;2023-03-31T16:58:11;2.93;;;1.00;;
19946;SDS011;10135;50.702;7.276;2023-03-31T17:00:12;1.83;;;1.10;;
19946;SDS011;10135;50.702;7.276;2023-03-31T17:02:13;1.87;;;0.90;;
19946;SDS011;10135;50.702;7.276;2023-03-31T17:04:14;1.37;;;1.07;;
19946;SDS011;10135;50.702;7.276;2023-03-31T17:06:15;0.70;;;0.70;;
19946;SDS011;10135;50.702;7.276;2023-03-31T17:08:15;0.80;;;0.80;;
19946;SDS011;10135;50.702;7.276;2023-03-31T17:10:16;1.93;;;0.90;;
19946;SDS011;10135;50.702;7.276;2023-03-31T17:12:17;0.80;;;0.80;;
19946;SDS011;10135;50.702;7.276;2023-03-31T17:14:17;1.03;;;0.93;;
19946;SDS011;10135;50.702;7.276;2023-03-31T17:16:18;2.70;;;0.90;;
19946;SDS011;10135;50.702;7.276;2023-03-31T17:18:20;2.00;;;1.13;;
19946;SDS011;10135;50.702;7.276;2023-03-31T17:20:21;0.90;;;0.90;;
19946;SDS011;10135;50.702;7.276;2023-03-31T17:22:22;2.17;;;1.23;;
19946;SDS011;10135;50.702;7.276;2023-03-31T17:24:23;2.73;;;0.90;;
19946;SDS011;10135;50.702;7.276;2023-03-31T17:26:23;1.70;;;0.80;;
19946;SDS011;10135;50.702;7.276;2023-03-31T17:28:26;0.80;;;0.80;;
19946;SDS011;10135;50.702;7.276;2023-03-31T17:30:27;1.37;;;1.10;;
19946;SDS011;10135;50.702;7.276;2023-03-31T17:32:28;1.00;;;0.93;;
19946;SDS011;10135;50.702;7.276;2023-03-31T17:34:28;1.80;;;1.00;;
19946;SDS011;10135;50.702;7.276;2023-03-31T17:36:29;1.00;;;1.00;;
19946;SDS011;10135;50.702;7.276;2023-03-31T17:38:30;2.37;;;1.20;;
19946;SDS011;10135;50.702;7.276;2023-03-31T17:40:30;2.67;;;0.90;;
19946;SDS011;10135;50.702;7.276;2023-03-31T17:42:33;1.53;;;1.10;;
19946;SDS011;10135;50.702;7.276;2023-03-31T17:44:34;2.73;;;0.83;;
19946;SDS011;10135;50.702;7.276;2023-03-31T17:46:35;1.57;;;0.90;;
19946;SDS011;10135;50.702;7.276;2023-03-31T17:48:35;2.63;;;1.17;;
19946;SDS011;10135;50.702;7.276;2023-03-31T17:50:37;1.20;;;1.10;;
19946;SDS011;10135;50.702;7.276;2023-03-31T17:52:38;1.43;;;1.13;;
19946;SDS011;10135;50.702;7.276;2023-03-31T17:54:39;1.40;;;0.90;;
19946;SDS011;10135;50.702;7.276;2023-03-31T17:56:40;1.10;;;1.00;;
19946;SDS011;10135;50.702;7.276;2023-03-31T17:58:42;1.00;;;0.90;;
19946;SDS011;10135;50.702;7.276;2023-03-31T18:00:43;0.80;;;0.80;;
19946;SDS011;10135;50.702;7.276;2023-03-31T18:02:44;1.10;;;0.80;;
19946;SDS011;10135;50.702;7.276;2023-03-31T18:04:45;1.10;;;1.00;;
19946;SDS011;10135;50.702;7.276;2023-03-31T18:06:46;1.40;;;1.03;;
19946;SDS011;10135;50.702;7.276;2023-03-31T18:08:47;0.83;;;0.77;;
19946;SDS011;10135;50.702;7.276;2023-03-31T18:10:48;1.93;;;0.93;;
19946;SDS011;10135;50.702;7.276;2023-03-31T18:12:49;1.03;;;0.90;;
19946;SDS011;10135;50.702;7.276;2023-03-31T18:14:50;2.03;;;1.00;;
19946;SDS011;10135;50.702;7.276;2023-03-31T18:16:51;1.10;;;1.10;;
19946;SDS011;10135;50.702;7.276;2023-03-31T18:18:52;2.80;;;1.00;;
19946;SDS011;10135;50.702;7.276;2023-03-31T18:20:52;1.67;;;1.13;;
19946;SDS011;10135;50.702;7.276;2023-03-31T18:22:54;1.57;;;1.23;;
19946;SDS011;10135;50.702;7.276;2023-03-31T18:24:55;2.33;;;1.07;;
19946;SDS011;10135;50.702;7.276;2023-03-31T18:26:55;1.10;;;1.10;;
19946;SDS011;10135;50.702;7.276;2023-03-31T18:28:56;1.40;;;1.00;;
19946;SDS011;10135;50.702;7.276;2023-03-31T18:31:01;1.30;;;1.17;;
19946;SDS011;10135;50.702;7.276;2023-03-31T18:33:11;0.90;;;0.90;;
19946;SDS011;10135;50.702;7.276;2023-03-31T18:35:12;0.90;;;0.90;;
19946;SDS011;10135;50.702;7.276;2023-03-31T18:37:13;1.00;;;0.90;;
19946;SDS011;10135;50.702;7.276;2023-03-31T18:39:13;1.10;;;1.10;;
19946;SDS011;10135;50.702;7.276;2023-03-31T18:41:14;1.20;;;0.97;;
19946;SDS011;10135;50.702;7.276;2023-03-31T18:43:19;1.93;;;1.17;;
19946;SDS011;10135;50.702;7.276;2023-03-31T18:45:22;1.90;;;0.83;;
19946;SDS011;10135;50.702;7.276;2023-03-31T18:47:23;2.53;;;1.27;;
19946;SDS011;10135;50.702;7.276;2023-03-31T18:49:25;0.80;;;0.80;;
19946;SDS011;10135;50.702;7.276;2023-03-31T18:51:25;1.43;;;1.00;;
19946;SDS011;10135;50.702;7.276;2023-03-31T18:53:26;1.93;;;1.00;;
19946;SDS011;10135;50.702;7.276;2023-03-31T18:55:29;0.83;;;0.73;;
19946;SDS011;10135;50.702;7.276;2023-03-31T18:57:30;0.77;;;0.77;;
19946;SDS011;10135;50.702;7.276;2023-03-31T18:59:31;1.27;;;0.97;;
19946;SDS011;10135;50.702;7.276;2023-03-31T19:01:32;0.77;;;0.77;;
19946;SDS011;10135;50.702;7.276;2023-03-31T19:03:34;1.00;;;1.00;;
19946;SDS011;10135;50.702;7.276;2023-03-31T19:05:34;0.83;;;0.83;;
19946;SDS011;10135;50.702;7.276;2023-03-31T19:07:35;1.97;;;0.90;;
19946;SDS011;10135;50.702;7.276;2023-03-31T19:09:36;0.90;;;0.90;;
19946;SDS011;10135;50.702;7.276;2023-03-31T19:11:37;1.67;;;0.87;;
19946;SDS011;10135;50.702;7.276;2023-03-31T19:13:38;1.00;;;0.90;;
19946;SDS011;10135;50.702;7.276;2023-03-31T19:15:41;2.43;;;0.90;;
19946;SDS011;10135;50.702;7.276;2023-03-31T19:17:42;1.80;;;0.97;;
19946;SDS011;10135;50.702;7.276;2023-03-31T19:19:43;1.60;;;0.90;;
19946;SDS011;10135;50.702;7.276;2023-03-31T19:21:44;0.80;;;0.80;;